createdAt,value
2018-09-20T00:00:37.277Z,35.82
2018-09-20T00:03:13.080Z,35.87
2018-09-20T00:05:49.089Z,35.58
2018-09-20T00:08:24.894Z,35.35
2018-09-20T00:11:00.881Z,35.84
2018-09-20T00:13:36.905Z,35.44
2018-09-20T00:16:12.930Z,36.00
2018-09-20T00:18:48.909Z,35.77
2018-09-20T00:21:24.897Z,36.27
2018-09-20T00:24:01.072Z,35.61
2018-09-20T00:26:36.948Z,36.03
2018-09-20T00:29:12.586Z,36.27
2018-09-20T00:31:48.733Z,35.19
2018-09-20T00:34:24.738Z,35.76
2018-09-20T00:37:00.734Z,36.02
2018-09-20T00:39:36.733Z,36.35
2018-09-20T00:42:12.924Z,36.03
2018-09-20T00:44:49.142Z,35.84
2018-09-20T00:47:25.255Z,36.03
2018-09-20T00:50:01.655Z,36.52
2018-09-20T00:52:37.667Z,35.98
2018-09-20T00:55:13.555Z,36.49
2018-09-20T00:57:49.096Z,35.75
2018-09-20T01:02:07.310Z,36.12
2018-09-20T01:04:43.100Z,35.40
2018-09-20T01:07:19.099Z,36.03
2018-09-20T01:09:56.109Z,36.58
2018-09-20T01:12:31.745Z,35.89
2018-09-20T01:15:08.098Z,36.23
2018-09-20T01:17:44.054Z,35.65
2018-09-20T01:20:20.104Z,35.59
2018-09-20T01:22:56.112Z,36.26
2018-09-20T01:25:32.140Z,35.16
2018-09-20T01:28:08.635Z,36.14
2018-09-20T01:30:44.957Z,36.38
2018-09-20T01:33:20.754Z,35.59
2018-09-20T01:35:56.936Z,35.76
2018-09-20T01:38:32.933Z,36.17
2018-09-20T01:41:08.933Z,35.66
2018-09-20T01:43:45.135Z,35.88
2018-09-20T01:46:21.220Z,35.80
2018-09-20T01:48:57.127Z,35.58
2018-09-20T01:51:33.125Z,35.58
2018-09-20T01:54:09.116Z,36.29
2018-09-20T01:56:45.212Z,35.66
2018-09-20T01:59:20.935Z,35.02
2018-09-20T02:01:56.916Z,35.74
2018-09-20T02:04:33.068Z,35.83
2018-09-20T02:07:09.123Z,35.07
2018-09-20T02:09:44.917Z,35.78
2018-09-20T02:12:20.922Z,35.31
2018-09-20T02:14:57.322Z,35.80
2018-09-20T02:17:34.129Z,35.55
2018-09-20T02:20:10.135Z,35.65
2018-09-20T02:22:46.535Z,35.53
2018-09-20T02:25:22.747Z,35.58
2018-09-20T02:27:58.574Z,35.80
2018-09-20T02:30:34.803Z,35.83
2018-09-20T02:33:11.676Z,35.07
2018-09-20T02:35:48.727Z,35.12
2018-09-20T02:38:25.131Z,35.63
2018-09-20T02:41:01.129Z,35.39
2018-09-20T02:43:36.934Z,36.23
2018-09-20T02:46:12.970Z,35.74
2018-09-20T02:48:48.838Z,36.08
2018-09-20T02:51:24.937Z,36.27
2018-09-20T02:54:02.143Z,35.93
2018-09-20T02:56:40.573Z,35.64
2018-09-20T02:59:17.150Z,35.24
2018-09-20T03:01:53.154Z,35.86
2018-09-20T03:04:29.135Z,36.27
2018-09-20T03:07:05.873Z,35.88
2018-09-20T03:09:41.968Z,35.07
2018-09-20T03:14:22.961Z,36.07
2018-09-20T03:16:58.338Z,35.70
2018-09-20T03:19:35.168Z,36.37
2018-09-20T03:22:11.130Z,36.09
2018-09-20T03:24:46.598Z,36.12
2018-09-20T03:27:23.302Z,35.88
2018-09-20T03:29:58.909Z,35.64
2018-09-20T03:32:34.625Z,35.40
2018-09-20T03:35:10.728Z,36.33
2018-09-20T03:37:48.305Z,35.60
2018-09-20T03:40:23.901Z,35.64
2018-09-20T03:43:00.306Z,36.53
2018-09-20T03:45:35.886Z,35.96
2018-09-20T03:48:12.979Z,36.00
2018-09-20T03:50:49.600Z,35.55
2018-09-20T03:53:25.337Z,36.22
2018-09-20T03:56:00.792Z,36.76
2018-09-20T03:58:36.981Z,36.51
2018-09-20T04:01:20.380Z,35.87
2018-09-20T04:03:55.746Z,35.82
2018-09-20T04:06:33.389Z,36.20
2018-09-20T04:09:15.355Z,36.24
2018-09-20T04:11:50.976Z,36.42
2018-09-20T04:14:26.741Z,36.56
2018-09-20T04:17:02.359Z,36.06
2018-09-20T04:19:38.114Z,36.38
2018-09-20T04:22:14.565Z,35.96
2018-09-20T04:24:50.172Z,36.32
2018-09-20T04:27:25.732Z,36.14
2018-09-20T04:30:01.401Z,36.28
2018-09-20T04:32:36.993Z,36.90
2018-09-20T04:35:12.173Z,35.96
2018-09-20T04:37:47.412Z,36.76
2018-09-20T04:40:23.158Z,36.58
2018-09-20T04:42:58.907Z,36.57
2018-09-20T04:45:34.193Z,37.19
2018-09-20T04:48:09.793Z,36.48
2018-09-20T04:50:45.334Z,37.32
2018-09-20T04:53:20.996Z,37.25
2018-09-20T04:58:48.974Z,36.46
2018-09-20T05:01:24.890Z,36.46
2018-09-20T05:04:00.915Z,37.15
2018-09-20T05:06:36.377Z,37.26
2018-09-20T05:09:16.374Z,36.74
2018-09-20T05:11:52.047Z,36.97
2018-09-20T05:14:27.962Z,37.11
2018-09-20T05:17:04.383Z,36.56
2018-09-20T05:19:40.713Z,36.41
2018-09-20T05:22:16.623Z,37.12
2018-09-20T05:24:52.626Z,36.69
2018-09-20T05:27:28.801Z,37.07
2018-09-20T05:30:04.974Z,36.70
2018-09-20T05:32:41.178Z,36.20
2018-09-20T05:35:16.927Z,36.68
2018-09-20T05:37:52.935Z,36.86
2018-09-20T05:40:29.166Z,36.19
2018-09-20T05:43:05.136Z,36.16
2018-09-20T05:45:41.006Z,37.18
2018-09-20T05:48:17.371Z,36.73
2018-09-20T05:50:53.257Z,36.81
2018-09-20T05:53:29.226Z,36.59
2018-09-20T05:56:05.057Z,36.49
2018-09-20T05:58:41.251Z,36.55
2018-09-20T06:01:17.130Z,36.84
2018-09-20T06:03:52.950Z,36.46
2018-09-20T06:06:29.218Z,36.13
2018-09-20T06:09:05.193Z,36.71
2018-09-20T06:11:41.413Z,37.18
2018-09-20T06:14:17.367Z,36.45
2018-09-20T06:16:53.218Z,36.70
2018-09-20T06:19:29.365Z,36.48
2018-09-20T06:23:15.840Z,36.08
2018-09-20T06:25:51.839Z,36.58
2018-09-20T06:28:28.031Z,36.11
2018-09-20T06:31:04.827Z,36.30
2018-09-20T06:33:40.669Z,36.83
2018-09-20T06:36:16.856Z,36.44
2018-09-20T06:38:52.941Z,36.63
2018-09-20T06:41:28.962Z,36.67
2018-09-20T06:44:05.009Z,36.60
2018-09-20T06:46:41.005Z,36.67
2018-09-20T06:49:16.973Z,36.29
2018-09-20T06:51:53.030Z,36.51
2018-09-20T06:54:29.406Z,36.59
2018-09-20T06:57:05.221Z,37.11
2018-09-20T06:59:41.201Z,36.66
2018-09-20T07:02:16.930Z,37.25
2018-09-20T07:04:52.920Z,37.50
2018-09-20T07:07:29.044Z,36.81
2018-09-20T07:10:05.202Z,37.18
2018-09-20T07:12:41.241Z,37.59
2018-09-20T07:15:17.420Z,36.50
2018-09-20T07:17:53.245Z,36.50
2018-09-20T07:20:29.026Z,37.25
2018-09-20T07:23:04.983Z,37.65
2018-09-20T07:25:41.048Z,37.13
2018-09-20T07:28:17.422Z,37.04
2018-09-20T07:30:53.603Z,37.78
2018-09-20T07:33:29.926Z,37.12
2018-09-20T07:36:06.433Z,37.38
2018-09-20T07:38:42.477Z,37.77
2018-09-20T07:41:19.051Z,37.30
2018-09-20T07:43:55.087Z,36.80
2018-09-20T07:46:30.944Z,38.02
2018-09-20T07:49:07.054Z,37.42
2018-09-20T07:51:43.322Z,37.40
2018-09-20T07:54:19.250Z,37.33
2018-09-20T07:56:55.441Z,38.12
2018-09-20T07:59:31.673Z,37.42
2018-09-20T08:02:07.937Z,36.84
2018-09-20T08:04:44.338Z,38.17
2018-09-20T08:07:20.418Z,37.79
2018-09-20T08:09:56.241Z,37.67
2018-09-20T08:12:32.724Z,37.30
2018-09-20T08:15:09.204Z,37.47
2018-09-20T08:17:45.047Z,37.77
2018-09-20T08:20:21.240Z,37.36
2018-09-20T08:22:57.270Z,37.67
2018-09-20T08:25:33.054Z,37.72
2018-09-20T08:28:09.750Z,38.24
2018-09-20T08:30:46.065Z,37.74
2018-09-20T08:33:22.245Z,38.09
2018-09-20T08:35:58.247Z,38.47
2018-09-20T08:38:34.246Z,38.12
2018-09-20T08:41:10.146Z,37.77
2018-09-20T08:43:46.254Z,38.41
2018-09-20T08:46:22.101Z,38.43
2018-09-20T08:48:58.078Z,38.37
2018-09-20T08:51:34.054Z,37.84
2018-09-20T08:54:10.087Z,37.25
2018-09-20T08:56:46.086Z,38.09
2018-09-20T08:59:22.069Z,37.90
2018-09-20T09:01:57.703Z,37.54
2018-09-20T09:04:34.118Z,37.16
2018-09-20T09:07:10.063Z,37.57
2018-09-20T09:09:46.061Z,37.76
2018-09-20T09:12:21.921Z,38.25
2018-09-20T09:14:57.940Z,37.93
2018-09-20T09:17:34.097Z,37.55
2018-09-20T09:20:09.701Z,37.06
2018-09-20T09:22:45.910Z,37.53
2018-09-20T09:25:21.997Z,36.98
2018-09-20T09:27:58.093Z,38.01
2018-09-20T09:30:34.268Z,37.55
2018-09-20T09:33:10.069Z,36.94
2018-09-20T09:35:46.069Z,37.08
2018-09-20T09:38:21.897Z,37.54
2018-09-20T09:40:58.117Z,37.85
2018-09-20T09:43:34.377Z,38.35
2018-09-20T09:46:10.746Z,38.14
2018-09-20T09:48:46.758Z,37.85
2018-09-20T09:51:22.978Z,37.70
2018-09-20T09:53:58.741Z,37.10
2018-09-20T09:56:34.441Z,37.57
2018-09-20T09:59:10.465Z,37.40
2018-09-20T10:01:46.505Z,37.52
2018-09-20T10:04:22.761Z,37.79
2018-09-20T10:06:58.734Z,37.47
2018-09-20T10:09:34.437Z,37.63
2018-09-20T10:12:10.388Z,37.46
2018-09-20T10:14:46.277Z,37.61
2018-09-20T10:17:22.281Z,37.48
2018-09-20T10:19:58.016Z,37.61
2018-09-20T10:22:33.924Z,38.00
2018-09-20T10:25:10.113Z,36.78
2018-09-20T10:27:45.948Z,37.41
2018-09-20T10:30:21.721Z,38.11
2018-09-20T10:32:57.665Z,37.59
2018-09-20T10:35:33.945Z,37.08
2018-09-20T10:38:10.109Z,38.13
2018-09-20T10:40:46.010Z,37.24
2018-09-20T10:43:22.107Z,37.70
2018-09-20T10:45:57.923Z,38.08
2018-09-20T10:48:34.118Z,37.74
2018-09-20T10:51:10.126Z,37.60
2018-09-20T10:53:45.889Z,36.70
2018-09-20T10:56:22.001Z,37.42
2018-09-20T10:58:57.810Z,36.92
2018-09-20T11:01:34.108Z,37.91
2018-09-20T11:04:10.180Z,37.61
2018-09-20T11:06:46.125Z,37.56
2018-09-20T11:09:22.136Z,36.90
2018-09-20T11:11:58.304Z,36.61
2018-09-20T11:14:34.014Z,36.88
2018-09-20T11:17:10.301Z,36.66
2018-09-20T11:19:46.921Z,37.20
2018-09-20T11:22:23.038Z,37.39
2018-09-20T11:24:59.066Z,37.22
2018-09-20T11:27:35.361Z,36.77
2018-09-20T11:30:11.318Z,37.03
2018-09-20T11:32:47.485Z,37.59
2018-09-20T11:35:23.526Z,36.87
2018-09-20T11:37:59.490Z,36.71
2018-09-20T11:40:35.725Z,36.79
2018-09-20T11:43:12.038Z,36.24
2018-09-20T11:45:48.262Z,36.75
2018-09-20T11:48:24.136Z,37.32
2018-09-20T11:51:00.113Z,37.08
2018-09-20T11:53:36.045Z,36.86
2018-09-20T11:56:12.050Z,37.44
2018-09-20T11:58:48.180Z,36.79
2018-09-20T12:01:24.231Z,36.20
2018-09-20T12:04:00.145Z,36.18
2018-09-20T12:06:36.147Z,37.03
2018-09-20T12:09:13.001Z,36.95
2018-09-20T12:11:48.825Z,36.76
2018-09-20T12:14:25.186Z,37.09
2018-09-20T12:17:01.325Z,37.05
2018-09-20T12:19:37.318Z,36.79
2018-09-20T12:22:13.511Z,36.55
2018-09-20T12:24:49.828Z,36.63
2018-09-20T12:27:25.901Z,36.96
2018-09-20T12:30:02.272Z,36.33
2018-09-20T12:32:38.162Z,35.89
2018-09-20T12:35:13.939Z,35.92
2018-09-20T12:37:50.173Z,36.34
2018-09-20T12:40:26.318Z,36.51
2018-09-20T12:43:02.447Z,36.39
2018-09-20T12:45:38.977Z,37.16
2018-09-20T12:48:15.391Z,36.85
2018-09-20T12:50:51.333Z,36.78
2018-09-20T12:53:27.361Z,35.72
2018-09-20T12:56:03.378Z,36.51
2018-09-20T12:58:47.654Z,37.06
2018-09-20T13:01:24.283Z,36.52
2018-09-20T13:04:00.157Z,36.52
2018-09-20T13:06:36.366Z,36.92
2018-09-20T13:09:14.342Z,36.38
2018-09-20T13:11:50.369Z,36.64
2018-09-20T13:14:26.730Z,36.04
2018-09-20T13:17:03.163Z,36.28
2018-09-20T13:19:39.573Z,36.58
2018-09-20T13:22:16.174Z,36.09
2018-09-20T13:24:52.665Z,35.83
2018-09-20T13:27:28.491Z,36.85
2018-09-20T13:30:04.658Z,36.69
2018-09-20T13:32:41.139Z,36.37
2018-09-20T13:35:17.414Z,36.00
2018-09-20T13:37:53.630Z,35.78
2018-09-20T13:40:29.387Z,36.62
2018-09-20T13:43:05.503Z,36.68
2018-09-20T13:45:42.299Z,36.48
2018-09-20T13:48:18.523Z,37.36
2018-09-20T13:50:54.858Z,37.02
2018-09-20T13:53:31.174Z,37.16
2018-09-20T13:56:07.353Z,37.79
2018-09-20T13:58:46.910Z,36.59
2018-09-20T14:01:23.150Z,37.03
2018-09-20T14:03:59.222Z,37.53
2018-09-20T14:06:35.191Z,37.87
2018-09-20T14:09:15.034Z,38.13
2018-09-20T14:11:51.381Z,37.58
2018-09-20T14:14:27.523Z,38.33
2018-09-20T14:17:03.878Z,37.71
2018-09-20T14:19:40.247Z,38.32
2018-09-20T14:22:16.259Z,37.64
2018-09-20T14:24:52.183Z,38.54
2018-09-20T14:27:28.359Z,38.23
2018-09-20T14:30:04.671Z,38.98
2018-09-20T14:32:41.128Z,39.20
2018-09-20T14:35:17.526Z,39.22
2018-09-20T14:37:53.799Z,38.96
2018-09-20T14:40:30.211Z,39.31
2018-09-20T14:43:06.388Z,39.15
2018-09-20T14:45:42.871Z,38.64
2018-09-20T14:48:19.090Z,39.66
2018-09-20T14:50:55.500Z,39.00
2018-09-20T14:53:32.803Z,39.72
2018-09-20T14:56:09.197Z,39.50
2018-09-20T14:58:45.498Z,39.20
2018-09-20T15:01:21.928Z,40.43
2018-09-20T15:03:58.371Z,40.01
2018-09-20T15:06:34.682Z,39.50
2018-09-20T15:09:14.931Z,39.67
2018-09-20T15:11:51.203Z,39.67
2018-09-20T15:14:28.242Z,41.16
2018-09-20T15:17:04.785Z,40.57
2018-09-20T15:19:41.367Z,39.85
2018-09-20T15:22:17.433Z,41.16
2018-09-20T15:24:53.364Z,40.33
2018-09-20T15:27:29.327Z,39.34
2018-09-20T15:30:05.194Z,40.06
2018-09-20T15:32:41.401Z,40.34
2018-09-20T15:35:17.134Z,39.11
2018-09-20T15:37:53.094Z,39.89
2018-09-20T15:40:29.133Z,39.34
2018-09-20T15:43:04.542Z,38.98
2018-09-20T15:45:40.181Z,39.08
2018-09-20T15:48:15.398Z,38.98
2018-09-20T15:50:51.011Z,38.72
2018-09-20T15:53:27.211Z,38.60
2018-09-20T15:56:02.847Z,37.92
2018-09-20T15:58:38.840Z,38.53
2018-09-20T16:01:15.890Z,38.36
2018-09-20T16:03:51.581Z,38.90
2018-09-20T16:06:27.217Z,38.12
2018-09-20T16:09:02.591Z,38.13
2018-09-20T16:11:37.985Z,37.89
2018-09-20T16:14:13.598Z,38.08
2018-09-20T16:16:49.973Z,38.00
2018-09-20T16:19:25.982Z,38.01
2018-09-20T16:22:02.252Z,39.15
2018-09-20T16:24:40.857Z,38.19
2018-09-20T16:27:16.483Z,38.63
2018-09-20T16:30:15.541Z,38.02
2018-09-20T16:33:04.691Z,38.21
2018-09-20T16:35:52.009Z,38.71
2018-09-20T16:38:36.927Z,39.26
2018-09-20T16:41:14.952Z,37.99
2018-09-20T16:43:50.603Z,38.65
2018-09-20T16:46:26.232Z,39.00
2018-09-20T16:49:01.403Z,38.56
2018-09-20T16:51:36.783Z,38.63
2018-09-20T16:54:12.149Z,38.02
2018-09-20T16:56:47.597Z,38.08
2018-09-20T16:59:22.855Z,38.92
2018-09-20T17:01:58.229Z,38.83
2018-09-20T17:04:33.683Z,38.51
2018-09-20T17:07:09.440Z,38.83
2018-09-20T17:09:44.891Z,39.58
2018-09-20T17:12:18.966Z,38.96
2018-09-20T17:14:54.273Z,39.19
2018-09-20T17:17:29.617Z,39.10
2018-09-20T17:20:05.295Z,38.78
2018-09-20T17:22:41.026Z,38.75
2018-09-20T17:25:16.634Z,39.24
2018-09-20T17:27:52.260Z,38.92
2018-09-20T17:30:28.241Z,38.78
2018-09-20T17:33:04.213Z,38.73
2018-09-20T17:35:40.536Z,39.15
2018-09-20T17:38:17.450Z,38.81
2018-09-20T17:40:57.496Z,38.69
2018-09-20T17:43:42.904Z,38.69
2018-09-20T17:46:18.449Z,38.26
2018-09-20T17:48:54.168Z,38.48
2018-09-20T17:51:30.434Z,39.10
2018-09-20T17:54:06.622Z,39.17
2018-09-20T17:56:43.426Z,38.75
2018-09-20T17:59:19.593Z,38.83
2018-09-20T18:01:55.007Z,39.13
2018-09-20T18:04:30.605Z,38.27
2018-09-20T18:07:06.155Z,39.34
2018-09-20T18:09:41.694Z,38.72
2018-09-20T18:12:17.245Z,38.49
2018-09-20T18:14:52.450Z,38.39
2018-09-20T18:17:28.074Z,38.64
2018-09-20T18:20:03.861Z,37.76
2018-09-20T18:22:39.433Z,37.78
2018-09-20T18:25:15.043Z,37.72
2018-09-20T18:27:48.507Z,37.89
2018-09-20T18:30:23.697Z,38.21
2018-09-20T18:32:59.285Z,38.54
2018-09-20T18:35:34.885Z,38.24
2018-09-20T18:38:10.759Z,38.34
2018-09-20T18:40:46.054Z,38.78
2018-09-20T18:43:21.630Z,37.87
2018-09-20T18:45:57.068Z,37.97
2018-09-20T18:48:32.874Z,37.62
2018-09-20T18:51:08.444Z,37.98
2018-09-20T18:53:44.080Z,38.25
2018-09-20T18:56:20.993Z,37.23
2018-09-20T18:58:56.445Z,37.78
2018-09-20T19:01:32.022Z,38.45
2018-09-20T19:04:07.644Z,37.75
2018-09-20T19:06:43.251Z,38.35
2018-09-20T19:09:18.650Z,37.19
2018-09-20T19:11:54.293Z,37.96
2018-09-20T19:17:22.553Z,37.10
2018-09-20T19:19:58.157Z,37.49
2018-09-20T19:22:33.494Z,37.57
2018-09-20T19:25:08.923Z,37.52
2018-09-20T19:27:44.080Z,36.76
2018-09-20T19:30:19.639Z,37.67
2018-09-20T19:32:54.951Z,37.48
2018-09-20T19:35:30.661Z,37.26
2018-09-20T19:38:06.035Z,37.10
2018-09-20T19:40:41.867Z,37.36
2018-09-20T19:43:18.184Z,37.54
2018-09-20T19:45:54.219Z,37.84
2018-09-20T19:48:29.662Z,36.65
2018-09-20T19:51:05.632Z,36.64
2018-09-20T19:53:41.479Z,37.15
2018-09-20T19:56:17.442Z,37.49
2018-09-20T19:58:54.682Z,37.41
2018-09-20T20:01:30.624Z,36.82
2018-09-20T20:04:06.201Z,37.22
2018-09-20T20:06:42.169Z,36.69
2018-09-20T20:09:18.418Z,37.21
2018-09-20T20:11:54.193Z,37.63
2018-09-20T20:14:30.294Z,36.36
2018-09-20T20:17:06.201Z,36.79
2018-09-20T20:19:42.322Z,37.56
2018-09-20T20:22:18.217Z,36.23
2018-09-20T20:24:54.269Z,37.16
2018-09-20T20:27:30.300Z,36.68
2018-09-20T20:30:06.193Z,37.39
2018-09-20T20:32:42.245Z,37.34
2018-09-20T20:35:18.302Z,37.33
2018-09-20T20:37:54.303Z,36.61
2018-09-20T20:40:30.301Z,37.15
2018-09-20T20:43:06.849Z,36.98
2018-09-20T20:45:42.978Z,36.04
2018-09-20T20:48:19.106Z,35.88
2018-09-20T20:50:55.293Z,36.50
2018-09-20T20:53:31.121Z,36.78
2018-09-20T20:56:07.276Z,36.73
2018-09-20T20:58:43.359Z,36.42
2018-09-20T21:01:21.932Z,36.45
2018-09-20T21:03:57.921Z,36.29
2018-09-20T21:06:33.928Z,35.72
2018-09-20T21:09:11.881Z,36.28
2018-09-20T21:11:48.218Z,35.87
2018-09-20T21:14:24.227Z,35.86
2018-09-20T21:17:00.514Z,36.07
2018-09-20T21:19:36.521Z,36.17
2018-09-20T21:22:12.504Z,36.12
2018-09-20T21:24:48.688Z,36.53
2018-09-20T21:27:24.670Z,36.17
2018-09-20T21:30:00.685Z,36.18
2018-09-20T21:32:36.689Z,36.23
2018-09-20T21:35:12.662Z,36.55
2018-09-20T21:37:48.701Z,35.97
2018-09-20T21:40:24.316Z,35.80
2018-09-20T21:43:01.104Z,36.37
2018-09-20T21:45:37.529Z,35.24
2018-09-20T21:48:13.555Z,35.99
2018-09-20T21:50:49.532Z,35.79
2018-09-20T21:53:25.313Z,36.50
2018-09-20T21:56:01.630Z,35.64
2018-09-20T22:01:17.503Z,35.73
2018-09-20T22:03:54.205Z,35.11
2018-09-20T22:06:30.317Z,35.63
2018-09-20T22:09:07.336Z,36.29
2018-09-20T22:11:43.636Z,36.27
2018-09-20T22:14:20.228Z,35.38
2018-09-20T22:16:56.370Z,35.26
2018-09-20T22:19:32.512Z,36.07
2018-09-20T22:22:08.675Z,35.61
2018-09-20T22:24:48.670Z,35.40
2018-09-20T22:27:24.942Z,35.47
2018-09-20T22:30:01.343Z,35.48
2018-09-20T22:32:37.514Z,36.14
2018-09-20T22:35:13.471Z,35.49
2018-09-20T22:37:49.324Z,35.73
2018-09-20T22:40:25.338Z,34.83
2018-09-20T22:43:01.338Z,35.02
2018-09-20T22:45:37.978Z,35.87
2018-09-20T22:48:14.128Z,35.50
2018-09-20T22:50:50.380Z,36.00
2018-09-20T22:53:26.921Z,35.03
2018-09-20T22:56:02.960Z,35.26
2018-09-20T22:58:39.345Z,35.23
2018-09-20T23:01:19.535Z,34.89
2018-09-20T23:03:55.526Z,35.31
2018-09-20T23:06:31.388Z,35.22
2018-09-20T23:09:09.123Z,35.29
2018-09-20T23:11:45.378Z,34.58
2018-09-20T23:14:21.343Z,34.83
2018-09-20T23:16:58.320Z,34.88
2018-09-20T23:19:34.334Z,35.55
2018-09-20T23:22:10.815Z,35.04
2018-09-20T23:24:47.039Z,35.15
2018-09-20T23:27:23.009Z,34.84
2018-09-20T23:29:59.152Z,35.07
2018-09-20T23:32:35.275Z,35.32
2018-09-20T23:35:10.841Z,34.67
2018-09-20T23:37:47.080Z,35.09
2018-09-20T23:40:22.717Z,35.52
2018-09-20T23:42:58.374Z,34.64
2018-09-20T23:45:34.369Z,34.53
2018-09-20T23:48:10.560Z,34.96
2018-09-20T23:50:46.367Z,34.77
2018-09-20T23:53:22.545Z,34.59
2018-09-20T23:55:58.548Z,34.80
2018-09-20T23:58:34.369Z,35.57
